createdAt,value
2018-07-20T00:00:21.517Z,21.05
2018-07-20T00:01:21.564Z,21.05
2018-07-20T00:02:21.411Z,20.98
2018-07-20T00:05:03.649Z,20.96
2018-07-20T00:06:04.649Z,20.96
2018-07-20T00:07:03.495Z,21.00
2018-07-20T00:11:28.210Z,20.97
2018-07-20T00:12:28.089Z,20.90
2018-07-20T00:13:27.980Z,20.88
2018-07-20T00:16:10.154Z,20.96
2018-07-20T00:17:11.162Z,20.97
2018-07-20T00:18:09.966Z,20.90
2018-07-20T00:19:10.006Z,20.78
2018-07-20T00:20:09.817Z,20.73
2018-07-20T00:21:09.832Z,20.72
2018-07-20T00:22:09.764Z,20.66
2018-07-20T00:23:09.737Z,20.75
2018-07-20T00:24:09.513Z,20.73
2018-07-20T00:25:09.600Z,20.71
2018-07-20T00:26:09.376Z,20.72
2018-07-20T00:27:09.355Z,20.66
2018-07-20T00:28:09.198Z,20.69
2018-07-20T00:29:09.155Z,20.75
2018-07-20T00:30:09.049Z,20.72
2018-07-20T00:31:10.020Z,20.69
2018-07-20T00:32:08.878Z,20.64
2018-07-20T00:33:08.881Z,20.61
2018-07-20T00:34:08.772Z,20.72
2018-07-20T00:35:08.747Z,20.72
2018-07-20T00:36:08.581Z,20.68
2018-07-20T00:37:08.593Z,20.63
2018-07-20T00:38:08.429Z,20.63
2018-07-20T00:39:08.451Z,20.58
2018-07-20T00:40:08.276Z,20.46
2018-07-20T00:41:08.210Z,20.54
2018-07-20T00:42:08.109Z,20.68
2018-07-20T00:43:08.146Z,20.61
2018-07-20T00:44:07.945Z,20.51
2018-07-20T00:45:07.967Z,20.60
2018-07-20T00:46:07.793Z,20.57
2018-07-20T00:47:07.959Z,20.58
2018-07-20T00:48:07.646Z,20.56
2018-07-20T00:49:08.069Z,20.68
2018-07-20T00:50:07.521Z,20.48
2018-07-20T00:51:08.328Z,20.61
2018-07-20T00:52:07.350Z,20.61
2018-07-20T00:54:49.151Z,20.63
2018-07-20T00:55:49.190Z,20.53
2018-07-20T00:56:49.015Z,20.46
2018-07-20T00:59:31.137Z,20.41
2018-07-20T01:00:32.136Z,20.40
2018-07-20T01:01:30.984Z,20.38
2018-07-20T01:04:13.162Z,20.34
2018-07-20T01:06:38.007Z,20.23
2018-07-20T01:07:37.567Z,20.15
2018-07-20T01:08:37.593Z,20.13
2018-07-20T01:09:37.413Z,20.07
2018-07-20T01:10:37.392Z,20.08
2018-07-20T01:11:37.283Z,20.08
2018-07-20T01:14:19.146Z,20.12
2018-07-20T01:17:01.295Z,20.15
2018-07-20T01:18:01.186Z,20.16
2018-07-20T01:19:00.990Z,20.23
2018-07-20T01:20:00.991Z,20.19
2018-07-20T01:21:00.833Z,20.26
2018-07-20T01:22:00.945Z,20.27
2018-07-20T01:23:00.690Z,20.33
2018-07-20T01:24:00.717Z,20.23
2018-07-20T01:25:00.523Z,20.26
2018-07-20T01:27:42.678Z,20.17
2018-07-20T01:28:42.636Z,20.22
2018-07-20T01:29:42.496Z,20.26
2018-07-20T01:32:24.666Z,20.15
2018-07-20T01:33:24.604Z,20.20
2018-07-20T01:34:24.503Z,20.15
2018-07-20T01:37:06.653Z,20.17
2018-07-20T01:38:06.714Z,20.12
2018-07-20T01:39:06.493Z,20.13
2018-07-20T01:40:06.455Z,20.10
2018-07-20T01:41:06.343Z,19.98
2018-07-20T01:42:06.490Z,20.02
2018-07-20T01:43:06.205Z,19.97
2018-07-20T01:44:06.174Z,19.95
2018-07-20T01:45:06.176Z,19.95
2018-07-20T01:46:05.976Z,19.92
2018-07-20T01:47:05.882Z,19.95
2018-07-20T01:48:05.919Z,19.97
2018-07-20T01:49:05.716Z,19.94
2018-07-20T01:50:05.695Z,19.92
2018-07-20T01:51:05.560Z,19.90
2018-07-20T01:52:05.504Z,19.97
2018-07-20T01:53:05.418Z,19.87
2018-07-20T01:54:05.418Z,19.85
2018-07-20T01:55:05.265Z,19.87
2018-07-20T01:56:05.222Z,19.79
2018-07-20T01:57:05.173Z,19.80
2018-07-20T01:58:05.072Z,19.80
2018-07-20T01:59:04.947Z,19.85
2018-07-20T02:00:04.952Z,19.86
2018-07-20T02:01:04.781Z,19.94
2018-07-20T02:03:46.683Z,19.72
2018-07-20T02:04:46.655Z,19.68
2018-07-20T02:05:46.500Z,19.65
2018-07-20T02:09:29.692Z,19.62
2018-07-20T02:12:11.680Z,19.50
2018-07-20T02:41:52.766Z,19.46
2018-07-20T02:42:52.652Z,19.47
2018-07-20T02:43:52.640Z,19.32
2018-07-20T02:44:52.442Z,19.32
2018-07-20T02:45:52.496Z,19.27
2018-07-20T02:46:52.278Z,19.27
2018-07-20T02:47:52.255Z,19.25
2018-07-20T02:48:52.124Z,19.28
2018-07-20T02:49:52.105Z,19.23
2018-07-20T02:50:51.995Z,19.21
2018-07-20T02:51:51.994Z,19.12
2018-07-20T02:52:51.809Z,19.10
2018-07-20T02:55:33.697Z,19.32
2018-07-20T02:56:54.618Z,19.30
2018-07-20T02:57:33.636Z,19.30
2018-07-20T02:58:33.494Z,19.28
2018-07-20T02:59:33.353Z,19.15
2018-07-20T03:00:33.335Z,19.12
2018-07-20T03:01:33.204Z,19.12
2018-07-20T03:02:33.207Z,19.15
2018-07-20T03:03:33.064Z,19.17
2018-07-20T03:06:15.206Z,19.10
2018-07-20T03:07:15.219Z,19.15
2018-07-20T03:08:15.027Z,19.15
2018-07-20T03:09:15.037Z,19.09
2018-07-20T03:10:14.887Z,19.12
2018-07-20T03:11:14.906Z,19.10
2018-07-20T03:12:14.710Z,18.99
2018-07-20T03:13:14.760Z,18.86
2018-07-20T03:14:14.557Z,18.82
2018-07-20T03:15:14.607Z,18.86
2018-07-20T03:16:14.414Z,18.89
2018-07-20T03:17:14.365Z,18.84
2018-07-20T03:18:14.237Z,18.78
2018-07-20T03:19:14.274Z,18.86
2018-07-20T03:20:14.092Z,18.78
2018-07-20T03:21:14.127Z,18.91
2018-07-20T03:22:13.919Z,18.83
2018-07-20T03:23:13.906Z,18.76
2018-07-20T03:24:13.783Z,18.83
2018-07-20T03:26:55.705Z,18.71
2018-07-20T03:27:55.744Z,18.68
2018-07-20T03:28:55.669Z,18.60
2018-07-20T03:31:37.690Z,18.51
2018-07-20T03:32:37.759Z,18.59
2018-07-20T03:33:37.529Z,18.64
2018-07-20T03:34:37.534Z,18.60
2018-07-20T03:35:37.398Z,18.64
2018-07-20T03:36:37.344Z,18.60
2018-07-20T03:37:37.292Z,18.54
2018-07-20T03:40:19.206Z,18.72
2018-07-20T03:41:21.159Z,18.64
2018-07-20T03:42:19.043Z,18.71
2018-07-20T03:43:22.986Z,18.64
2018-07-20T03:44:18.883Z,18.64
2018-07-20T03:45:20.807Z,18.59
2018-07-20T03:46:18.731Z,18.57
2018-07-20T03:47:18.780Z,18.66
2018-07-20T03:48:18.582Z,18.53
2018-07-20T03:49:18.569Z,18.46
2018-07-20T04:08:41.181Z,18.34
2018-07-20T04:09:42.103Z,18.35
2018-07-20T04:10:40.866Z,18.47
2018-07-20T04:11:40.839Z,18.47
2018-07-20T04:12:40.715Z,18.51
2018-07-20T04:13:40.753Z,18.50
2018-07-20T04:14:40.564Z,18.49
2018-07-20T04:15:40.560Z,18.44
2018-07-20T04:16:40.395Z,18.32
2018-07-20T04:19:22.725Z,18.49
2018-07-20T04:20:23.427Z,18.51
2018-07-20T04:21:22.548Z,18.57
2018-07-20T04:22:25.110Z,18.57
2018-07-20T04:23:22.391Z,18.71
2018-07-20T04:24:22.579Z,18.62
2018-07-20T04:25:22.248Z,18.59
2018-07-20T04:26:24.145Z,18.65
2018-07-20T04:27:22.176Z,18.39
2018-07-20T04:28:22.111Z,18.54
2018-07-20T04:29:21.916Z,18.51
2018-07-20T04:30:21.952Z,18.53
2018-07-20T04:31:21.753Z,18.57
2018-07-20T04:32:21.698Z,18.71
2018-07-20T04:33:21.602Z,18.46
2018-07-20T04:34:21.635Z,18.46
2018-07-20T04:35:21.467Z,18.46
2018-07-20T04:36:21.448Z,18.53
2018-07-20T04:37:21.286Z,18.60
2018-07-20T04:38:21.258Z,18.64
2018-07-20T04:39:21.183Z,18.65
2018-07-20T04:40:21.112Z,18.60
2018-07-20T04:41:20.975Z,18.68
2018-07-20T04:42:20.888Z,18.56
2018-07-20T04:43:20.809Z,18.53
2018-07-20T04:44:20.734Z,18.59
2018-07-20T04:45:20.681Z,18.57
2018-07-20T04:46:20.599Z,18.62
2018-07-20T04:47:20.485Z,18.56
2018-07-20T04:48:20.422Z,18.39
2018-07-20T04:49:20.351Z,18.34
2018-07-20T04:50:20.285Z,18.44
2018-07-20T04:51:20.188Z,18.44
2018-07-20T04:54:02.236Z,18.62
2018-07-20T04:55:02.129Z,18.50
2018-07-20T04:56:02.077Z,18.41
2018-07-20T04:57:02.005Z,18.36
2018-07-20T04:58:01.897Z,18.28
2018-07-20T04:59:01.856Z,18.34
2018-07-20T05:00:01.742Z,18.32
2018-07-20T05:01:01.683Z,18.28
2018-07-20T05:02:01.589Z,18.29
2018-07-20T05:03:01.519Z,18.34
2018-07-20T05:04:01.451Z,18.23
2018-07-20T05:06:43.739Z,18.44
2018-07-20T05:09:25.984Z,18.42
2018-07-20T05:10:25.772Z,18.32
2018-07-20T05:11:25.839Z,18.41
2018-07-20T05:12:25.544Z,18.51
2018-07-20T05:13:25.400Z,18.60
2018-07-20T05:14:25.326Z,18.53
2018-07-20T05:15:25.256Z,18.59
2018-07-20T05:18:07.236Z,18.42
2018-07-20T05:20:49.220Z,18.64
2018-07-20T05:21:49.160Z,18.51
2018-07-20T05:24:27.397Z,18.60
2018-07-20T05:25:27.387Z,18.65
2018-07-20T05:26:27.746Z,18.56
2018-07-20T05:27:27.239Z,18.54
2018-07-20T05:28:27.167Z,18.60
2018-07-20T05:29:26.831Z,18.71
2018-07-20T05:30:26.758Z,18.76
2018-07-20T05:31:26.670Z,18.82
2018-07-20T05:32:26.613Z,18.86
2018-07-20T05:33:26.553Z,18.90
2018-07-20T05:34:26.436Z,18.90
2018-07-20T05:35:26.356Z,18.90
2018-07-20T05:36:26.271Z,18.91
2018-07-20T05:37:26.216Z,18.76
2018-07-20T05:38:26.150Z,18.76
2018-07-20T05:39:26.049Z,18.79
2018-07-20T05:40:25.960Z,18.83
2018-07-20T05:46:29.140Z,19.15
2018-07-20T05:47:29.057Z,19.15
2018-07-20T05:48:30.972Z,19.27
2018-07-20T05:49:28.899Z,19.45
2018-07-20T05:50:29.024Z,19.43
2018-07-20T05:51:28.688Z,19.46
2018-07-20T05:54:10.759Z,19.70
2018-07-20T05:55:10.696Z,19.72
2018-07-20T05:56:10.579Z,19.75
2018-07-20T05:57:11.515Z,19.86
2018-07-20T05:58:10.421Z,19.87
2018-07-20T05:59:10.358Z,19.98
2018-07-20T06:00:10.265Z,19.97
2018-07-20T06:01:10.234Z,20.08
2018-07-20T06:02:10.097Z,20.16
2018-07-20T06:03:10.053Z,20.37
2018-07-20T06:04:09.992Z,20.40
2018-07-20T06:05:09.883Z,20.44
2018-07-20T06:06:09.784Z,20.48
2018-07-20T06:07:09.745Z,20.40
2018-07-20T06:08:09.633Z,20.40
2018-07-20T06:09:09.579Z,20.44
2018-07-20T06:10:09.494Z,20.34
2018-07-20T06:11:09.405Z,20.33
2018-07-20T06:12:09.313Z,20.26
2018-07-20T06:13:09.250Z,20.12
2018-07-20T06:14:09.244Z,20.12
2018-07-20T06:15:09.112Z,20.10
2018-07-20T06:16:08.997Z,20.26
2018-07-20T06:17:08.944Z,20.40
2018-07-20T06:18:08.844Z,20.40
2018-07-20T06:19:08.835Z,20.60
2018-07-20T06:20:08.713Z,20.54
2018-07-20T06:21:08.631Z,20.68
2018-07-20T06:22:08.551Z,20.63
2018-07-20T06:24:50.775Z,21.03
2018-07-20T06:25:51.818Z,21.18
2018-07-20T06:26:50.584Z,20.97
2018-07-20T06:27:50.521Z,21.36
2018-07-20T06:28:50.434Z,22.11
2018-07-20T06:53:12.398Z,27.30
2018-07-20T06:55:54.286Z,27.91
2018-07-20T06:56:54.186Z,27.84
2018-07-20T06:57:54.108Z,27.65
2018-07-20T06:58:54.030Z,27.96
2018-07-20T06:59:53.963Z,28.03
2018-07-20T07:00:54.925Z,28.39
2018-07-20T07:01:53.813Z,28.48
2018-07-20T07:02:53.751Z,28.38
2018-07-20T07:03:53.857Z,28.54
2018-07-20T07:04:53.601Z,28.03
2018-07-20T07:05:53.548Z,26.57
2018-07-20T07:06:54.489Z,27.02
2018-07-20T07:07:53.387Z,27.61
2018-07-20T07:08:53.321Z,27.84
2018-07-20T07:09:53.242Z,27.69
2018-07-20T07:10:53.182Z,27.90
2018-07-20T07:11:53.132Z,28.43
2018-07-20T07:12:53.060Z,28.82
2018-07-20T07:13:52.958Z,28.95
2018-07-20T07:14:52.943Z,29.12
2018-07-20T07:24:16.095Z,27.68
2018-07-20T07:25:15.980Z,27.61
2018-07-20T07:27:58.293Z,28.05
2018-07-20T07:28:58.206Z,28.51
2018-07-20T07:29:58.121Z,28.73
2018-07-20T07:30:58.067Z,28.61
2018-07-20T07:31:57.996Z,29.10
2018-07-20T07:32:57.958Z,29.51
2018-07-20T07:33:57.857Z,29.67
2018-07-20T07:34:57.784Z,29.67
2018-07-20T07:35:57.699Z,29.14
2018-07-20T07:36:57.642Z,29.26
2018-07-20T07:37:57.658Z,29.58
2018-07-20T07:38:57.505Z,30.04
2018-07-20T07:39:57.429Z,29.84
2018-07-20T07:40:57.429Z,29.76
2018-07-20T07:41:57.298Z,29.70
2018-07-20T07:42:57.250Z,29.92
2018-07-20T07:43:57.154Z,30.49
2018-07-20T07:44:57.105Z,30.51
2018-07-20T07:45:57.019Z,30.49
2018-07-20T07:48:39.298Z,30.23
2018-07-20T07:49:39.218Z,29.95
2018-07-20T07:50:39.255Z,29.66
2018-07-20T07:51:39.292Z,29.81
2018-07-20T07:52:39.102Z,29.94
2018-07-20T07:53:39.493Z,30.01
2018-07-20T07:54:38.854Z,30.19
2018-07-20T07:55:38.812Z,30.01
2018-07-20T07:56:38.767Z,30.06
2018-07-20T07:57:38.664Z,30.37
2018-07-20T07:58:38.621Z,30.08
2018-07-20T07:59:38.522Z,29.92
2018-07-20T08:00:38.444Z,30.18
2018-07-20T08:01:38.382Z,30.40
2018-07-20T08:02:38.345Z,30.40
2018-07-20T08:03:38.263Z,30.48
2018-07-20T08:04:38.205Z,30.70
2018-07-20T08:05:38.115Z,30.67
2018-07-20T08:06:38.038Z,30.45
2018-07-20T08:07:37.996Z,30.79
2018-07-20T08:08:37.965Z,30.66
2018-07-20T08:09:37.901Z,30.60
2018-07-20T08:10:37.767Z,30.44
2018-07-20T08:13:19.774Z,29.89
2018-07-20T08:14:20.741Z,30.11
2018-07-20T08:15:19.688Z,30.45
2018-07-20T08:18:01.858Z,30.18
2018-07-20T08:20:43.815Z,30.79
2018-07-20T08:23:25.799Z,30.78
2018-07-20T08:24:25.732Z,31.16
2018-07-20T08:25:25.708Z,31.15
2018-07-20T08:26:25.592Z,31.78
2018-07-20T08:27:25.545Z,31.60
2018-07-20T08:28:25.459Z,31.98
2018-07-20T08:29:25.405Z,32.19
2018-07-20T08:30:25.394Z,32.63
2018-07-20T08:31:25.255Z,32.56
2018-07-20T08:34:07.303Z,32.91
2018-07-20T08:35:07.274Z,32.91
2018-07-20T08:36:07.145Z,32.62
2018-07-20T08:37:07.106Z,32.41
2018-07-20T08:38:07.043Z,32.61
2018-07-20T08:39:06.962Z,32.71
2018-07-20T08:40:06.957Z,32.54
2018-07-20T08:41:06.883Z,32.56
2018-07-20T08:42:06.780Z,32.56
2018-07-20T08:43:06.709Z,32.49
2018-07-20T08:44:06.722Z,32.19
2018-07-20T08:45:06.922Z,31.00
2018-07-20T08:46:06.499Z,30.93
2018-07-20T08:47:06.433Z,31.68
2018-07-20T08:48:06.365Z,32.46
2018-07-20T08:50:48.315Z,32.98
2018-07-20T08:51:48.235Z,32.84
2018-07-20T08:52:48.176Z,32.71
2018-07-20T08:53:48.147Z,32.47
2018-07-20T08:54:48.047Z,32.53
2018-07-20T08:55:48.038Z,32.65
2018-07-20T08:56:47.906Z,32.61
2018-07-20T08:57:47.855Z,32.91
2018-07-20T08:58:48.016Z,33.45
2018-07-20T08:59:47.737Z,33.40
2018-07-20T09:00:47.689Z,33.62
2018-07-20T09:01:47.603Z,33.37
2018-07-20T09:02:47.513Z,33.49
2018-07-20T09:03:47.491Z,33.17
2018-07-20T09:04:47.393Z,33.28
2018-07-20T09:05:48.357Z,32.62
2018-07-20T09:06:47.299Z,32.98
2018-07-20T09:07:47.343Z,33.07
2018-07-20T09:08:47.138Z,32.85
2018-07-20T09:09:47.112Z,33.07
2018-07-20T09:10:47.003Z,32.43
2018-07-20T09:11:46.999Z,33.06
2018-07-20T09:12:46.878Z,32.66
2018-07-20T09:15:28.858Z,32.17
2018-07-20T09:16:28.779Z,32.40
2018-07-20T09:17:28.755Z,32.76
2018-07-20T09:18:28.636Z,32.77
2018-07-20T09:19:28.549Z,33.06
2018-07-20T09:22:10.847Z,33.34
2018-07-20T09:23:10.764Z,32.87
2018-07-20T09:24:10.734Z,33.14
2018-07-20T09:25:10.646Z,33.37
2018-07-20T09:26:10.559Z,33.81
2018-07-20T09:27:10.546Z,33.78
2018-07-20T09:28:10.462Z,33.74
2018-07-20T09:29:10.366Z,33.62
2018-07-20T09:30:10.313Z,33.56
2018-07-20T09:31:10.278Z,33.12
2018-07-20T09:32:10.217Z,33.53
2018-07-20T09:34:52.310Z,33.21
2018-07-20T09:35:52.293Z,32.29
2018-07-20T09:36:52.208Z,31.87
2018-07-20T09:37:52.157Z,32.12
2018-07-20T09:38:52.063Z,32.50
2018-07-20T09:39:52.024Z,32.46
2018-07-20T09:40:51.970Z,32.13
2018-07-20T09:41:51.880Z,31.88
2018-07-20T09:42:51.908Z,31.84
2018-07-20T09:45:33.825Z,31.84
2018-07-20T09:46:33.793Z,32.02
2018-07-20T09:47:33.710Z,32.40
2018-07-20T09:48:33.666Z,32.95
2018-07-20T09:49:33.710Z,33.17
2018-07-20T09:50:33.530Z,33.56
2018-07-20T09:51:33.456Z,33.38
2018-07-20T09:52:33.388Z,32.93
2018-07-20T09:53:33.334Z,33.37
2018-07-20T09:54:33.318Z,33.40
2018-07-20T09:55:33.186Z,33.57
2018-07-20T09:56:33.130Z,33.21
2018-07-20T09:57:33.056Z,33.55
2018-07-20T09:58:33.140Z,33.53
2018-07-20T09:59:33.085Z,33.56
2018-07-20T10:00:32.882Z,33.55
2018-07-20T10:01:32.802Z,33.14
2018-07-20T10:02:32.756Z,33.11
2018-07-20T10:03:32.729Z,33.15
2018-07-20T10:06:14.833Z,33.71
2018-07-20T10:07:14.774Z,33.82
2018-07-20T10:08:14.818Z,33.62
2018-07-20T10:09:14.719Z,33.50
2018-07-20T10:10:14.592Z,33.81
2018-07-20T10:11:14.522Z,33.33
2018-07-20T10:12:14.458Z,33.53
2018-07-20T10:13:14.390Z,33.56
2018-07-20T10:14:14.357Z,33.53
2018-07-20T10:16:56.335Z,31.97
2018-07-20T10:19:38.352Z,32.03
2018-07-20T10:22:20.326Z,31.27
2018-07-20T10:23:20.291Z,31.87
2018-07-20T10:24:20.231Z,32.59
2018-07-20T10:25:21.182Z,33.22
2018-07-20T10:26:20.070Z,33.79
2018-07-20T10:27:20.172Z,34.08
2018-07-20T10:28:19.958Z,34.11
2018-07-20T10:29:19.914Z,34.12
2018-07-20T10:30:19.818Z,34.31
2018-07-20T10:31:20.771Z,33.92
2018-07-20T10:32:19.695Z,33.84
2018-07-20T10:35:01.874Z,33.66
2018-07-20T10:36:01.779Z,33.81
2018-07-20T10:37:01.745Z,33.82
2018-07-20T10:38:01.713Z,34.19
2018-07-20T10:39:01.613Z,34.08
2018-07-20T10:40:01.574Z,33.70
2018-07-20T10:41:01.491Z,33.22
2018-07-20T10:43:43.343Z,32.76
2018-07-20T10:44:43.280Z,32.93
2018-07-20T10:45:43.218Z,32.78
2018-07-20T10:46:43.194Z,33.22
2018-07-20T10:47:43.082Z,33.45
2018-07-20T10:48:43.097Z,33.38
2018-07-20T10:49:42.959Z,32.81
2018-07-20T10:50:42.936Z,32.47
2018-07-20T10:51:42.874Z,31.64
2018-07-20T10:52:42.778Z,31.65
2018-07-20T10:53:42.711Z,31.85
2018-07-20T10:54:42.663Z,32.05
2018-07-20T10:55:42.566Z,32.63
2018-07-20T10:56:43.536Z,32.14
2018-07-20T10:57:42.442Z,32.36
2018-07-20T11:00:24.343Z,32.02
2018-07-20T11:01:24.449Z,32.59
2018-07-20T11:02:24.232Z,32.80
2018-07-20T11:03:24.236Z,32.71
2018-07-20T11:04:24.094Z,32.65
2018-07-20T11:05:24.019Z,33.02
2018-07-20T11:06:23.973Z,32.85
2018-07-20T11:09:05.839Z,32.61
2018-07-20T11:10:05.789Z,33.12
2018-07-20T11:11:05.709Z,33.14
2018-07-20T11:12:05.688Z,32.91
2018-07-20T11:13:05.616Z,32.96
2018-07-20T11:14:05.538Z,33.31
2018-07-20T11:15:05.477Z,33.21
2018-07-20T11:17:47.365Z,34.03
2018-07-20T11:18:47.295Z,34.30
2018-07-20T11:19:47.228Z,33.41
2018-07-20T11:20:47.194Z,33.24
2018-07-20T11:21:47.108Z,33.28
2018-07-20T11:22:49.170Z,33.75
2018-07-20T11:23:46.996Z,33.89
2018-07-20T11:26:28.849Z,33.50
2018-07-20T11:27:29.830Z,33.75
2018-07-20T11:28:28.780Z,33.26
2018-07-20T11:29:28.701Z,33.06
2018-07-20T11:30:28.635Z,33.50
2018-07-20T11:31:28.559Z,33.56
2018-07-20T11:32:28.644Z,33.12
2018-07-20T11:33:28.423Z,33.14
2018-07-20T11:34:28.349Z,33.09
2018-07-20T11:35:28.305Z,33.28
2018-07-20T11:36:28.237Z,33.66
2018-07-20T11:37:28.200Z,33.82
2018-07-20T11:38:28.123Z,34.26
2018-07-20T11:39:28.048Z,34.76
2018-07-20T11:40:27.985Z,35.10
2018-07-20T11:41:27.946Z,34.30
2018-07-20T11:42:27.864Z,33.93
2018-07-20T11:43:27.816Z,33.94
2018-07-20T11:44:27.747Z,33.81
2018-07-20T11:45:27.693Z,33.87
2018-07-20T11:46:27.674Z,34.24
2018-07-20T11:47:27.563Z,34.33
2018-07-20T11:48:27.499Z,34.48
2018-07-20T11:49:27.434Z,33.92
2018-07-20T11:50:27.357Z,33.87
2018-07-20T11:53:09.383Z,32.90
2018-07-20T11:54:09.344Z,32.73
2018-07-20T11:55:09.245Z,32.91
2018-07-20T11:56:09.189Z,32.72
2018-07-20T11:57:09.110Z,32.76
2018-07-20T11:59:51.395Z,32.87
2018-07-20T12:00:51.302Z,33.11
2018-07-20T12:01:51.254Z,32.81
2018-07-20T12:02:51.222Z,32.02
2018-07-20T12:03:51.121Z,31.75
2018-07-20T12:04:51.073Z,31.91
2018-07-20T12:05:51.019Z,31.65
2018-07-20T12:06:50.936Z,31.91
2018-07-20T12:07:50.845Z,32.25
2018-07-20T12:08:50.808Z,32.43
2018-07-20T12:09:50.744Z,32.39
2018-07-20T12:10:50.674Z,32.39
2018-07-20T12:11:50.650Z,32.69
2018-07-20T12:12:50.543Z,32.56
2018-07-20T12:13:50.461Z,32.77
2018-07-20T12:14:50.430Z,32.72
2018-07-20T12:15:50.322Z,32.39
2018-07-20T12:16:50.259Z,32.69
2018-07-20T12:17:50.200Z,32.71
2018-07-20T12:18:50.151Z,32.61
2018-07-20T12:19:50.059Z,31.90
2018-07-20T12:20:50.017Z,31.85
2018-07-20T12:21:49.908Z,31.59
2018-07-20T12:24:31.875Z,31.54
2018-07-20T12:25:31.819Z,31.37
2018-07-20T12:26:31.761Z,31.07
2018-07-20T12:27:31.707Z,31.09
2018-07-20T12:28:31.703Z,30.76
2018-07-20T12:29:31.546Z,30.97
2018-07-20T12:30:31.498Z,30.91
2018-07-20T12:31:32.437Z,30.78
2018-07-20T12:32:31.338Z,31.01
2018-07-20T12:33:31.321Z,30.94
2018-07-20T12:34:31.197Z,31.18
2018-07-20T12:35:31.133Z,31.09
2018-07-20T12:36:31.130Z,31.19
2018-07-20T12:37:30.994Z,31.19
2018-07-20T12:38:30.915Z,31.00
2018-07-20T12:41:12.931Z,30.98
2018-07-20T12:42:12.822Z,31.27
2018-07-20T12:43:12.751Z,31.07
2018-07-20T12:44:12.681Z,30.86
2018-07-20T12:45:12.605Z,30.97
2018-07-20T12:46:12.568Z,31.07
2018-07-20T12:47:12.483Z,30.76
2018-07-20T12:48:12.417Z,30.90
2018-07-20T12:49:12.351Z,30.93
2018-07-20T12:50:12.328Z,30.86
2018-07-20T12:51:12.231Z,31.16
2018-07-20T12:52:13.169Z,31.62
2018-07-20T12:53:12.048Z,31.64
2018-07-20T12:54:11.982Z,31.42
2018-07-20T12:55:11.918Z,31.53
2018-07-20T12:56:11.851Z,31.64
2018-07-20T12:57:11.787Z,31.84
2018-07-20T12:59:53.882Z,31.97
2018-07-20T13:00:53.825Z,32.10
2018-07-20T13:01:53.884Z,32.21
2018-07-20T13:02:53.686Z,32.35
2018-07-20T13:03:53.641Z,32.32
2018-07-20T13:04:53.542Z,32.46
2018-07-20T13:05:53.527Z,32.35
2018-07-20T13:06:53.412Z,32.02
2018-07-20T13:07:53.374Z,31.90
2018-07-20T13:08:53.281Z,32.02
2018-07-20T13:09:53.201Z,32.06
2018-07-20T13:10:53.297Z,31.90
2018-07-20T13:11:53.148Z,31.90
2018-07-20T13:12:53.106Z,31.79
2018-07-20T13:13:52.930Z,31.52
2018-07-20T13:14:52.852Z,31.42
2018-07-20T13:15:52.780Z,31.53
2018-07-20T13:16:52.718Z,31.64
2018-07-20T13:17:52.781Z,31.85
2018-07-20T13:18:52.571Z,32.16
2018-07-20T13:19:52.522Z,32.10
2018-07-20T13:20:52.483Z,32.05
2018-07-20T13:21:52.379Z,31.85
2018-07-20T13:22:52.365Z,31.79
2018-07-20T13:23:52.249Z,31.82
2018-07-20T13:26:34.400Z,32.29
2018-07-20T13:27:34.353Z,32.29
2018-07-20T13:28:34.288Z,32.24
2018-07-20T13:29:34.318Z,31.52
2018-07-20T13:30:34.126Z,31.22
2018-07-20T13:31:34.066Z,31.15
2018-07-20T13:32:34.020Z,31.05
2018-07-20T13:33:33.963Z,30.98
2018-07-20T13:34:33.930Z,30.78
2018-07-20T13:35:33.802Z,30.66
2018-07-20T13:36:33.720Z,30.45
2018-07-20T13:37:33.656Z,30.21
2018-07-20T13:38:33.583Z,29.97
2018-07-20T13:41:15.426Z,30.59
2018-07-20T13:42:15.349Z,30.64
2018-07-20T13:43:15.295Z,30.48
2018-07-20T13:44:15.360Z,30.70
2018-07-20T13:45:15.149Z,30.82
2018-07-20T13:46:15.080Z,30.79
2018-07-20T13:47:14.990Z,30.96
2018-07-20T13:48:15.929Z,30.81
2018-07-20T13:49:14.852Z,30.78
2018-07-20T13:50:14.787Z,30.63
2018-07-20T13:51:14.703Z,30.70
2018-07-20T13:52:14.648Z,30.70
2018-07-20T13:53:14.572Z,30.46
2018-07-20T13:54:14.509Z,30.23
2018-07-20T13:55:14.420Z,30.40
2018-07-20T13:57:56.418Z,30.32
2018-07-20T13:58:57.475Z,30.38
2018-07-20T13:59:56.259Z,30.63
2018-07-20T14:00:56.210Z,30.86
2018-07-20T14:01:56.119Z,30.98
2018-07-20T14:02:56.080Z,31.09
2018-07-20T14:03:56.034Z,31.37
2018-07-20T14:04:55.915Z,31.60
2018-07-20T14:05:55.884Z,31.62
2018-07-20T14:08:37.915Z,31.46
2018-07-20T14:09:37.872Z,31.49
2018-07-20T14:10:37.776Z,31.50
2018-07-20T14:11:37.719Z,31.27
2018-07-20T14:12:37.636Z,30.93
2018-07-20T14:15:19.941Z,31.09
2018-07-20T14:16:19.847Z,31.28
2018-07-20T14:17:19.772Z,31.27
2018-07-20T14:20:01.927Z,31.46
2018-07-20T14:21:01.852Z,31.60
2018-07-20T14:22:01.769Z,31.60
2018-07-20T14:23:01.706Z,31.49
2018-07-20T14:24:01.641Z,31.40
2018-07-20T14:25:02.595Z,31.41
2018-07-20T14:26:01.487Z,31.37
2018-07-20T14:27:01.442Z,31.50
2018-07-20T14:28:01.355Z,31.60
2018-07-20T14:29:01.287Z,31.40
2018-07-20T14:30:01.250Z,31.45
2018-07-20T14:32:43.425Z,30.78
2018-07-20T14:33:43.381Z,30.48
2018-07-20T14:34:43.278Z,30.48
2018-07-20T14:35:43.277Z,30.45
2018-07-20T14:36:43.135Z,30.63
2018-07-20T14:37:43.061Z,30.68
2018-07-20T14:38:43.014Z,30.61
2018-07-20T14:39:42.932Z,30.72
2018-07-20T14:40:42.937Z,30.82
2018-07-20T14:41:42.800Z,30.81
2018-07-20T14:42:42.713Z,30.48
2018-07-20T14:43:42.662Z,30.57
2018-07-20T14:44:42.563Z,30.46
2018-07-20T14:45:43.542Z,30.60
2018-07-20T14:46:42.441Z,30.64
2018-07-20T14:49:24.419Z,30.88
2018-07-20T14:50:24.469Z,30.97
2018-07-20T14:51:24.333Z,31.05
2018-07-20T14:54:06.433Z,30.94
2018-07-20T14:55:06.379Z,31.04
2018-07-20T14:56:06.321Z,31.04
2018-07-20T14:57:06.255Z,31.07
2018-07-20T14:58:06.143Z,31.05
2018-07-20T14:59:06.081Z,31.07
2018-07-20T15:00:06.028Z,31.00
2018-07-20T15:01:05.967Z,30.85
2018-07-20T15:02:05.894Z,30.86
2018-07-20T15:03:05.824Z,30.88
2018-07-20T15:04:05.737Z,30.93
2018-07-20T15:05:05.677Z,30.93
2018-07-20T15:06:05.622Z,30.90
2018-07-20T15:07:05.532Z,30.91
2018-07-20T15:08:05.476Z,31.00
2018-07-20T15:09:05.375Z,30.83
2018-07-20T15:10:05.290Z,30.82
2018-07-20T15:11:05.238Z,30.76
2018-07-20T15:12:05.178Z,30.72
2018-07-20T15:14:47.453Z,31.00
2018-07-20T15:15:47.384Z,30.98
2018-07-20T15:16:47.309Z,31.03
2018-07-20T15:19:29.426Z,31.27
2018-07-20T15:20:29.370Z,31.22
2018-07-20T15:21:29.293Z,31.10
2018-07-20T15:22:30.268Z,30.94
2018-07-20T15:23:29.194Z,30.85
2018-07-20T15:24:29.091Z,30.45
2018-07-20T15:25:29.025Z,30.64
2018-07-20T15:26:28.952Z,30.72
2018-07-20T15:27:28.884Z,30.76
2018-07-20T15:28:28.824Z,30.88
2018-07-20T15:29:28.769Z,30.91
2018-07-20T15:30:28.664Z,30.72
2018-07-20T15:31:28.591Z,30.68
2018-07-20T15:32:29.624Z,30.70
2018-07-20T15:33:28.456Z,30.66
2018-07-20T15:34:28.406Z,30.70
2018-07-20T15:35:28.315Z,30.48
2018-07-20T15:36:28.249Z,30.49
2018-07-20T15:37:28.181Z,30.64
2018-07-20T15:38:29.105Z,30.54
2018-07-20T15:39:28.083Z,30.51
2018-07-20T15:40:27.966Z,30.66
2018-07-20T15:41:27.891Z,30.64
2018-07-20T15:42:27.821Z,30.59
2018-07-20T15:43:27.768Z,30.40
2018-07-20T15:44:27.693Z,30.48
2018-07-20T15:45:27.596Z,30.60
2018-07-20T15:46:27.646Z,30.46
2018-07-20T15:47:27.562Z,30.45
2018-07-20T15:48:27.415Z,30.28
2018-07-20T15:49:27.334Z,30.37
2018-07-20T15:50:27.242Z,30.38
2018-07-20T15:51:55.486Z,30.32
2018-07-20T15:54:09.530Z,30.38
2018-07-20T15:55:09.391Z,30.49
2018-07-20T15:56:09.313Z,30.53
2018-07-20T15:57:09.268Z,30.44
2018-07-20T15:58:09.179Z,30.44
2018-07-20T15:59:09.103Z,30.59
2018-07-20T16:00:09.030Z,30.49
2018-07-20T16:01:08.981Z,30.34
2018-07-20T16:02:08.899Z,30.46
2018-07-20T16:03:08.934Z,30.40
2018-07-20T16:04:08.969Z,30.37
2018-07-20T16:05:08.740Z,30.46
2018-07-20T16:06:08.605Z,30.44
2018-07-20T16:08:50.476Z,30.26
2018-07-20T16:09:50.518Z,30.10
2018-07-20T16:10:50.330Z,30.13
2018-07-20T16:11:50.327Z,30.11
2018-07-20T16:12:50.176Z,30.08
2018-07-20T16:13:50.206Z,29.99
2018-07-20T16:14:50.027Z,30.10
2018-07-20T16:15:50.089Z,30.10
2018-07-20T16:16:49.883Z,29.99